Time;durP1;ratioP1;P1;durP2;ratioP2;P2;SDS_P1;SDS_P2;PMS_P1;PMS_P2;Temp;Humidity;BMP_temperature;BMP_pressure;BME280_temperature;BME280_humidity;BME280_pressure;Samples;Min_cycle;Max_cycle;Signal;HPM_P1;HPM_P2
2021/08/06 00:00:28;;;;;;;9.50;2.17;;;538.10;2406.40;;;;;;5136154;27;20083;-77
2021/08/06 00:02:54;;;;;;;3.45;1.95;;;538.20;2406.40;;;;;;5136080;27;20026;-77
2021/08/06 00:05:20;;;;;;;3.75;2.08;;;538.20;2406.40;;;;;;5117553;27;20064;-77
2021/08/06 00:07:46;;;;;;;4.40;1.50;;;538.20;2406.40;;;;;;5136046;27;20015;-77
2021/08/06 00:10:12;;;;;;;4.78;1.50;;;538.20;2406.40;;;;;;5117580;27;20020;-77
2021/08/06 00:12:38;;;;;;;4.55;2.03;;;538.10;2406.40;;;;;;5116924;27;20043;-76
2021/08/06 00:15:05;;;;;;;6.80;2.17;;;538.10;2406.40;;;;;;5117400;27;20035;-76
2021/08/06 00:17:31;;;;;;;2.72;1.63;;;538.00;2406.40;;;;;;5117396;27;20030;-76
2021/08/06 00:19:56;;;;;;;5.55;1.92;;;538.10;2406.40;;;;;;5117400;27;20019;-77
2021/08/06 00:22:22;;;;;;;2.97;2.30;;;538.00;2406.40;;;;;;5116962;27;20031;-77
2021/08/06 00:24:48;;;;;;;3.17;1.55;;;537.90;2406.40;;;;;;5117486;27;20494;-76
2021/08/06 00:27:13;;;;;;;3.85;2.00;;;537.90;2406.40;;;;;;5117323;27;20377;-77
2021/08/06 00:29:39;;;;;;;3.90;2.15;;;537.80;2406.40;;;;;;5117262;27;20396;-79
2021/08/06 00:32:05;;;;;;;3.90;1.50;;;537.80;2406.40;;;;;;5115483;27;20046;-78
2021/08/06 00:34:31;;;;;;;3.58;1.90;;;537.80;2406.40;;;;;;5135278;27;20102;-77
2021/08/06 00:36:56;;;;;;;5.55;1.63;;;537.60;2406.40;;;;;;5116806;27;20138;-78
2021/08/06 00:39:22;;;;;;;4.65;1.80;;;512.90;2380.80;;;;;;5134920;27;20023;-77
2021/08/06 00:41:48;;;;;;;2.58;1.80;;;512.90;2380.80;;;;;;5117088;27;20068;-77
2021/08/06 00:44:14;;;;;;;2.72;1.50;;;512.90;2380.80;;;;;;5151365;27;20483;-77
2021/08/06 00:46:40;;;;;;;4.25;2.10;;;512.90;2380.80;;;;;;5116942;27;20522;-78
2021/08/06 00:49:06;;;;;;;4.43;1.60;;;512.90;2380.80;;;;;;5135291;27;20054;-78
2021/08/06 00:51:32;;;;;;;4.13;2.17;;;512.90;2380.80;;;;;;5116889;27;20465;-77
2021/08/06 00:53:58;;;;;;;3.40;2.15;;;512.90;2380.80;;;;;;5116192;27;20073;-77
2021/08/06 00:56:24;;;;;;;4.68;2.20;;;512.90;2380.80;;;;;;5135080;27;20015;-78
2021/08/06 00:58:50;;;;;;;3.80;1.98;;;512.90;2380.80;;;;;;5116453;27;20418;-77
2021/08/06 01:01:19;;;;;;;4.03;1.80;;;512.90;2380.80;;;;;;5116758;27;20019;-77
2021/08/06 01:04:33;;;;;;;2.53;1.58;;;512.90;2380.80;;;;;;5116450;27;20470;-77
2021/08/06 01:07:04;;;;;;;7.97;2.13;;;512.90;2380.80;;;;;;5047747;28;20033;-78
2021/08/06 01:09:42;;;;;;;3.30;1.92;;;512.80;2380.80;;;;;;5068378;28;20020;-78
2021/08/06 01:12:17;;;;;;;5.70;2.00;;;512.80;2380.80;;;;;;5051515;28;20037;-78
2021/08/06 01:14:43;;;;;;;4.18;2.50;;;512.80;2380.80;;;;;;5034758;28;20037;-78
2021/08/06 01:17:11;;;;;;;7.05;2.47;;;512.80;2380.80;;;;;;5034778;28;20164;-78
2021/08/06 01:19:37;;;;;;;6.45;2.58;;;512.80;2380.80;;;;;;5034698;28;20021;-78
2021/08/06 01:22:14;;;;;;;3.67;2.28;;;512.80;2380.80;;;;;;5037050;28;20028;-78
2021/08/06 01:24:42;;;;;;;4.50;2.22;;;512.80;2380.80;;;;;;5054254;28;20043;-77
2021/08/06 01:27:10;;;;;;;5.45;2.53;;;512.90;2380.80;;;;;;5051895;28;20024;-76
2021/08/06 01:29:36;;;;;;;3.80;2.28;;;512.80;2380.80;;;;;;5070942;28;20120;-78
2021/08/06 01:32:01;;;;;;;4.40;1.95;;;512.80;2380.80;;;;;;5054223;28;20111;-78
2021/08/06 01:34:27;;;;;;;4.72;2.45;;;512.90;2380.80;;;;;;5067838;28;20116;-78
2021/08/06 01:36:53;;;;;;;3.80;2.30;;;512.90;2380.80;;;;;;5070839;28;20499;-77
2021/08/06 01:39:19;;;;;;;5.30;2.30;;;512.90;2380.80;;;;;;5070949;28;20517;-78
2021/08/06 01:42:05;;;;;;;5.05;2.22;;;512.70;2380.80;;;;;;5050774;28;20028;-79
2021/08/06 01:44:51;;;;;;;4.20;2.28;;;512.80;2380.80;;;;;;5109927;28;20039;-78
2021/08/06 01:47:23;;;;;;;6.63;2.40;;;512.80;2380.80;;;;;;5093813;28;20077;-79
2021/08/06 01:49:56;;;;;;;3.38;2.40;;;512.80;2380.80;;;;;;5092802;28;20559;-77
2021/08/06 01:52:25;;;;;;;4.47;1.85;;;512.80;2380.80;;;;;;5112644;28;20015;-77
2021/08/06 01:54:53;;;;;;;3.45;1.92;;;512.80;2380.80;;;;;;5110992;28;20084;-78
2021/08/06 01:57:19;;;;;;;7.55;1.83;;;512.80;2380.80;;;;;;5113469;28;20016;-77
2021/08/06 01:59:46;;;;;;;3.55;1.85;;;512.90;2380.80;;;;;;5095011;28;20485;-78
2021/08/06 02:02:13;;;;;;;3.78;1.95;;;512.50;2380.80;;;;;;5111157;28;20468;-80
2021/08/06 02:04:39;;;;;;;6.35;2.50;;;512.50;2380.80;;;;;;5099747;28;20031;-77
2021/08/06 02:07:05;;;;;;;7.80;2.40;;;512.40;2380.80;;;;;;5093699;28;20377;-79
2021/08/06 02:09:32;;;;;;;3.85;2.47;;;512.40;2380.80;;;;;;5100575;28;20618;-78
2021/08/06 02:11:57;;;;;;;4.75;2.10;;;512.30;2380.80;;;;;;5093503;28;20453;-78
2021/08/06 02:14:23;;;;;;;6.95;2.83;;;512.20;2380.80;;;;;;5111329;28;20040;-78
2021/08/06 02:16:53;;;;;;;5.22;2.40;;;512.20;2380.80;;;;;;5092278;28;20069;-77
2021/08/06 02:19:22;;;;;;;4.22;2.22;;;512.40;2380.80;;;;;;5112056;28;20083;-78
2021/08/06 02:21:55;;;;;;;6.78;2.47;;;512.50;2380.80;;;;;;5093605;28;20103;-78
2021/08/06 02:24:26;;;;;;;2.63;1.75;;;512.50;2380.80;;;;;;5102103;28;20045;-77
2021/08/06 02:26:54;;;;;;;6.30;2.25;;;512.60;2380.80;;;;;;5101730;27;20054;-77
2021/08/06 02:29:26;;;;;;;3.42;1.85;;;512.30;2380.80;;;;;;5121633;27;20019;-79
2021/08/06 02:31:52;;;;;;;6.03;2.40;;;512.50;2380.80;;;;;;5100111;28;20076;-77
2021/08/06 02:34:19;;;;;;;3.10;1.90;;;512.60;2380.80;;;;;;5101626;28;20464;-77
2021/08/06 02:36:48;;;;;;;4.78;1.63;;;512.70;2380.80;;;;;;5119581;28;20034;-79
2021/08/06 02:39:39;;;;;;;3.20;1.75;;;512.70;2380.80;;;;;;5119764;28;20481;-77
2021/08/06 02:42:06;;;;;;;3.60;1.70;;;512.70;2380.80;;;;;;5096443;28;20031;-77
2021/08/06 02:44:35;;;;;;;4.30;1.63;;;512.80;2380.80;;;;;;5100122;28;20031;-76
2021/08/06 02:47:01;;;;;;;2.60;1.60;;;512.80;2380.80;;;;;;5103581;28;20050;-77
2021/08/06 02:49:31;;;;;;;5.78;1.73;;;512.80;2380.80;;;;;;5101064;28;20054;-77
2021/08/06 02:51:58;;;;;;;2.40;1.80;;;512.70;2380.80;;;;;;5120603;28;20024;-77
2021/08/06 02:54:24;;;;;;;3.78;1.77;;;512.60;2380.80;;;;;;5123659;27;20102;-77
2021/08/06 02:56:49;;;;;;;5.05;1.67;;;512.70;2380.80;;;;;;5121819;28;20094;-78
2021/08/06 02:59:15;;;;;;;5.50;2.15;;;512.60;2380.80;;;;;;5101776;28;20024;-77
2021/08/06 03:01:41;;;;;;;2.92;1.55;;;512.60;2380.80;;;;;;5098155;28;20036;-78
2021/08/06 03:04:07;;;;;;;4.82;1.50;;;512.60;2380.80;;;;;;5105778;27;20015;-78
2021/08/06 03:06:33;;;;;;;4.35;2.08;;;512.80;2380.80;;;;;;5107561;27;20039;-78
2021/08/06 03:08:58;;;;;;;5.22;1.92;;;512.50;2380.80;;;;;;5105774;27;20026;-78
2021/08/06 03:11:24;;;;;;;3.97;2.13;;;512.50;2380.80;;;;;;5107564;27;20051;-78
2021/08/06 03:13:50;;;;;;;5.78;2.05;;;512.60;2380.80;;;;;;5098161;28;20381;-78
2021/08/06 03:16:16;;;;;;;5.88;1.90;;;512.60;2380.80;;;;;;5098202;28;20119;-79
2021/08/06 03:18:41;;;;;;;4.10;2.42;;;512.60;2380.80;;;;;;5098329;28;20023;-77
2021/08/06 03:21:07;;;;;;;6.15;2.13;;;512.80;2380.80;;;;;;5098047;28;20020;-77
2021/08/06 03:23:33;;;;;;;3.40;2.28;;;512.80;2380.80;;;;;;5113417;27;20187;-77
2021/08/06 03:25:59;;;;;;;3.83;2.20;;;512.70;2380.80;;;;;;5118713;27;20027;-77
2021/08/06 03:28:24;;;;;;;2.67;2.20;;;512.70;2380.80;;;;;;5118446;27;20022;-77
2021/08/06 03:30:50;;;;;;;3.92;2.10;;;512.60;2380.80;;;;;;5118264;27;20376;-77
2021/08/06 03:33:16;;;;;;;3.15;2.00;;;512.60;2380.80;;;;;;5118405;27;20387;-77
2021/08/06 03:35:42;;;;;;;4.38;2.30;;;512.40;2380.80;;;;;;5118014;27;20031;-78
2021/08/06 03:38:22;;;;;;;5.57;2.92;;;512.40;2380.80;;;;;;5136870;27;20023;-78
2021/08/06 03:40:49;;;;;;;6.82;2.33;;;512.40;2380.80;;;;;;5118043;27;20026;-78
2021/08/06 03:43:15;;;;;;;6.90;2.53;;;512.30;2380.80;;;;;;5117351;27;20019;-77
2021/08/06 03:45:41;;;;;;;4.97;2.20;;;512.20;2380.80;;;;;;5110766;27;20035;-77
2021/08/06 03:48:08;;;;;;;4.75;2.10;;;512.50;2380.80;;;;;;5118430;27;20031;-77
2021/08/06 03:50:35;;;;;;;3.65;2.40;;;512.20;2380.80;;;;;;5118131;27;20035;-77
2021/08/06 03:53:01;;;;;;;4.50;2.80;;;512.20;2380.80;;;;;;5118292;27;20020;-77
2021/08/06 03:55:27;;;;;;;4.25;2.53;;;512.20;2380.80;;;;;;5118280;27;20031;-77
2021/08/06 03:57:55;;;;;;;6.82;3.20;;;512.20;2380.80;;;;;;5115290;27;20019;-77
2021/08/06 04:00:22;;;;;;;4.57;2.40;;;512.10;2380.80;;;;;;5117797;27;20491;-77
2021/08/06 04:02:48;;;;;;;4.55;2.83;;;512.10;2380.80;;;;;;5117985;27;20472;-77
2021/08/06 04:05:14;;;;;;;9.10;2.90;;;512.00;2380.80;;;;;;5117932;27;20053;-78
2021/08/06 04:07:45;;;;;;;6.30;3.35;;;512.10;2380.80;;;;;;5136241;27;20110;-77
2021/08/06 04:10:14;;;;;;;7.13;3.63;;;512.10;2380.80;;;;;;5117875;27;20011;-77
2021/08/06 04:12:40;;;;;;;4.70;3.63;;;512.10;2380.80;;;;;;5117437;27;20113;-77
2021/08/06 04:15:07;;;;;;;4.00;3.25;;;512.00;2380.80;;;;;;5116516;27;20071;-79
2021/08/06 04:17:33;;;;;;;4.95;3.78;;;512.10;2380.80;;;;;;5117603;27;20472;-78
2021/08/06 04:19:59;;;;;;;4.90;4.00;;;512.10;2380.80;;;;;;5117617;27;20040;-79
2021/08/06 04:22:25;;;;;;;7.00;3.78;;;512.00;2380.80;;;;;;5117440;27;20400;-78
2021/08/06 04:24:51;;;;;;;6.15;3.95;;;512.10;2380.80;;;;;;5117601;27;20023;-83
2021/08/06 04:27:17;;;;;;;4.90;3.83;;;512.10;2380.80;;;;;;5117501;27;20027;-77
2021/08/06 04:29:42;;;;;;;4.35;3.55;;;512.10;2380.80;;;;;;5117298;27;20477;-76
2021/08/06 04:32:08;;;;;;;12.20;4.53;;;512.20;2380.80;;;;;;5108777;27;20019;-75
2021/08/06 04:34:34;;;;;;;5.28;3.50;;;512.10;2380.80;;;;;;5114256;27;20100;-75
2021/08/06 04:37:00;;;;;;;6.82;5.55;;;512.10;2380.80;;;;;;5135556;27;20031;-75
2021/08/06 04:39:25;;;;;;;7.63;5.45;;;512.20;2380.80;;;;;;5135538;27;20015;-75
2021/08/06 04:41:51;;;;;;;10.07;5.78;;;512.20;2380.80;;;;;;5135366;27;20426;-75
2021/08/06 04:44:18;;;;;;;7.10;5.28;;;512.30;2380.80;;;;;;5135189;27;20030;-75
2021/08/06 04:46:44;;;;;;;5.75;4.15;;;512.40;2380.80;;;;;;5116977;27;20046;-76
2021/08/06 04:49:10;;;;;;;6.03;3.28;;;512.90;2380.80;;;;;;5116842;27;20519;-75
2021/08/06 04:51:37;;;;;;;5.45;3.60;;;512.40;2380.80;;;;;;5116870;27;20023;-75
2021/08/06 04:54:02;;;;;;;8.95;3.95;;;512.20;2380.80;;;;;;5116665;27;20034;-75
2021/08/06 04:56:28;;;;;;;5.20;3.08;;;512.40;2380.80;;;;;;5135105;27;20384;-75
2021/08/06 04:58:54;;;;;;;4.60;3.47;;;512.40;2380.80;;;;;;5134983;27;20020;-75
2021/08/06 05:01:19;;;;;;;5.15;2.60;;;512.50;2380.80;;;;;;5135013;27;20019;-75
2021/08/06 05:03:45;;;;;;;6.93;2.97;;;512.80;2380.80;;;;;;5116686;27;20429;-75
2021/08/06 05:06:13;;;;;;;4.25;2.88;;;512.70;2380.80;;;;;;5116475;27;20048;-75
2021/08/06 05:08:42;;;;;;;7.40;4.97;;;512.80;2380.80;;;;;;5116529;27;20023;-76
2021/08/06 05:11:07;;;;;;;4.30;2.33;;;512.70;2380.80;;;;;;5116460;27;20468;-75
2021/08/06 05:13:33;;;;;;;3.80;1.70;;;512.80;2380.80;;;;;;5134676;27;20030;-75
2021/08/06 05:15:59;;;;;;;2.65;1.50;;;512.90;2380.80;;;;;;5134570;27;20468;-75
2021/08/06 05:18:25;;;;;;;2.75;1.60;;;512.80;2380.80;;;;;;5134698;27;20405;-74
2021/08/06 05:20:50;;;;;;;5.10;1.40;;;512.90;2380.80;;;;;;5134903;27;20100;-74
2021/08/06 05:23:16;;;;;;;3.72;1.60;;;537.60;2406.40;;;;;;5116559;27;20047;-74
2021/08/06 05:25:42;;;;;;;4.90;1.45;;;537.70;2406.40;;;;;;5134815;27;20094;-75
2021/08/06 05:28:07;;;;;;;2.20;1.40;;;537.70;2406.40;;;;;;5134908;27;20450;-74
2021/08/06 05:30:33;;;;;;;2.33;1.20;;;537.80;2406.40;;;;;;5134633;27;20026;-76
2021/08/06 05:32:59;;;;;;;2.90;1.50;;;537.80;2406.40;;;;;;5116503;27;20034;-74
2021/08/06 05:35:25;;;;;;;3.63;1.52;;;537.90;2406.40;;;;;;5116420;27;20031;-75
2021/08/06 05:37:50;;;;;;;2.03;1.40;;;537.90;2406.40;;;;;;5134767;27;20058;-75
2021/08/06 05:40:16;;;;;;;3.28;1.10;;;538.00;2406.40;;;;;;5116298;27;20088;-75
2021/08/06 05:42:42;;;;;;;1.90;1.40;;;538.10;2406.40;;;;;;5133549;27;20452;-76
2021/08/06 05:45:09;;;;;;;1.30;1.10;;;538.10;2406.40;;;;;;5133793;27;20100;-75
2021/08/06 05:47:48;;;;;;;3.53;1.30;;;538.10;2406.40;;;;;;5133667;27;20479;-75
2021/08/06 05:50:15;;;;;;;4.25;1.65;;;538.20;2406.40;;;;;;5133673;27;20047;-77
2021/08/06 05:52:40;;;;;;;1.33;1.00;;;538.20;2406.40;;;;;;5115272;27;20076;-77
2021/08/06 05:55:07;;;;;;;1.20;1.00;;;538.40;2406.40;;;;;;5115627;27;20431;-76
2021/08/06 05:57:32;;;;;;;1.23;1.00;;;538.40;2406.40;;;;;;5116120;27;20116;-76
2021/08/06 05:59:58;;;;;;;1.02;0.73;;;538.50;2406.40;;;;;;5134125;27;20027;-78
2021/08/06 06:02:24;;;;;;;3.22;1.08;;;538.50;2406.40;;;;;;5134374;27;20023;-78
2021/08/06 06:04:49;;;;;;;2.38;0.90;;;563.30;2432.00;;;;;;5115932;27;20027;-76
2021/08/06 06:07:15;;;;;;;0.93;0.70;;;563.30;2432.00;;;;;;5115939;27;20028;-76
2021/08/06 06:09:41;;;;;;;4.45;1.52;;;563.40;2432.00;;;;;;5115988;27;20034;-77
2021/08/06 06:12:07;;;;;;;2.20;0.68;;;563.40;2432.00;;;;;;5115797;27;20026;-77
2021/08/06 06:14:32;;;;;;;0.88;0.80;;;563.40;2432.00;;;;;;5115394;27;20391;-77
2021/08/06 06:16:58;;;;;;;2.83;0.80;;;563.50;2432.00;;;;;;5134120;27;20015;-79
2021/08/06 06:19:24;;;;;;;1.55;0.70;;;563.60;2406.40;;;;;;5115659;28;20069;-78
2021/08/06 06:21:50;;;;;;;1.15;0.80;;;563.70;2432.00;;;;;;5114563;27;20054;-78
2021/08/06 06:24:15;;;;;;;0.98;0.90;;;563.80;2406.40;;;;;;5115076;27;20131;-78
2021/08/06 06:26:41;;;;;;;1.17;0.85;;;563.90;2432.00;;;;;;5115335;27;20035;-78
2021/08/06 06:29:07;;;;;;;3.53;0.95;;;564.00;2355.20;;;;;;5115598;27;20027;-78
2021/08/06 06:31:33;;;;;;;0.93;0.73;;;564.10;2304.00;;;;;;5115401;27;20477;-78
2021/08/06 06:34:00;;;;;;;4.57;0.80;;;564.10;2304.00;;;;;;5115551;27;20023;-77
2021/08/06 06:36:27;;;;;;;5.32;0.70;;;588.80;2304.00;;;;;;5133899;28;20031;-78
2021/08/06 06:38:53;;;;;;;1.40;1.00;;;589.00;2304.00;;;;;;5133393;27;20512;-78
2021/08/06 06:41:19;;;;;;;1.27;0.75;;;588.90;2278.40;;;;;;5115570;28;20031;-77
2021/08/06 06:43:45;;;;;;;1.73;0.90;;;589.00;2278.40;;;;;;5115157;28;20427;-78
2021/08/06 06:46:10;;;;;;;1.30;0.80;;;589.10;2227.20;;;;;;5133619;27;20031;-78
2021/08/06 06:48:36;;;;;;;1.00;0.82;;;589.10;2201.60;;;;;;5115154;28;20016;-78
2021/08/06 06:51:02;;;;;;;4.65;0.88;;;589.30;2201.60;;;;;;5115259;28;20034;-77
2021/08/06 06:53:28;;;;;;;2.00;1.17;;;589.30;2150.40;;;;;;5115388;28;20106;-78
2021/08/06 06:55:54;;;;;;;2.05;1.05;;;589.40;2150.40;;;;;;5115268;28;20126;-79
2021/08/06 06:58:21;;;;;;;1.02;0.90;;;589.40;2150.40;;;;;;5115292;28;20521;-79
2021/08/06 07:00:47;;;;;;;1.25;0.82;;;589.40;2176.00;;;;;;5132273;28;20019;-77
2021/08/06 07:03:13;;;;;;;3.13;0.90;;;589.50;2176.00;;;;;;5114966;28;20099;-78
2021/08/06 07:05:39;;;;;;;2.63;0.95;;;589.70;2176.00;;;;;;5134047;28;20023;-78
2021/08/06 07:08:05;;;;;;;1.13;1.00;;;589.60;2150.40;;;;;;5133605;28;20031;-77
2021/08/06 07:10:31;;;;;;;1.17;0.82;;;589.70;2150.40;;;;;;5152421;27;20019;-77
2021/08/06 07:12:58;;;;;;;5.80;2.60;;;614.40;2150.40;;;;;;5154270;27;20491;-77
2021/08/06 07:15:24;;;;;;;3.47;1.52;;;614.50;2124.80;;;;;;5153822;27;20592;-78
2021/08/06 07:17:49;;;;;;;1.75;1.08;;;614.50;2124.80;;;;;;5135810;27;20035;-78
2021/08/06 07:20:17;;;;;;;0.98;0.90;;;614.60;2073.60;;;;;;5154385;27;20027;-78
2021/08/06 07:22:44;;;;;;;0.70;0.70;;;614.60;2073.60;;;;;;5135496;27;20054;-78
2021/08/06 07:25:11;;;;;;;1.02;0.80;;;614.70;2048.00;;;;;;5135916;27;20031;-78
2021/08/06 07:27:39;;;;;;;1.70;0.90;;;614.80;2099.20;;;;;;5135638;27;20533;-78
2021/08/06 07:30:07;;;;;;;2.72;0.90;;;614.70;2099.20;;;;;;5154091;27;20490;-77
2021/08/06 07:32:33;;;;;;;3.88;0.90;;;614.80;2073.60;;;;;;5153773;27;20042;-78
2021/08/06 07:34:59;;;;;;;2.33;0.80;;;614.90;2022.40;;;;;;5135507;27;20034;-76
2021/08/06 07:37:26;;;;;;;1.10;0.88;;;615.00;2073.60;;;;;;5135030;27;20035;-77
2021/08/06 07:39:52;;;;;;;1.05;0.70;;;615.00;2048.00;;;;;;5153671;27;20011;-77
2021/08/06 07:42:18;;;;;;;1.17;0.95;;;615.10;2022.40;;;;;;5153512;27;20073;-78
2021/08/06 07:44:44;;;;;;;1.90;1.17;;;615.30;2022.40;;;;;;5153504;27;20460;-79
2021/08/06 07:47:10;;;;;;;1.98;1.00;;;615.30;1971.20;;;;;;5153572;27;20087;-78
2021/08/06 07:49:36;;;;;;;2.47;0.90;;;640.00;1945.60;;;;;;5154723;27;20534;-78
2021/08/06 07:52:02;;;;;;;2.38;1.48;;;640.00;1971.20;;;;;;5157828;27;20023;-79
2021/08/06 07:54:28;;;;;;;2.40;1.17;;;640.00;1971.20;;;;;;5157286;27;20023;-78
2021/08/06 07:56:53;;;;;;;1.73;1.05;;;640.00;1996.80;;;;;;5156991;27;20483;-78
2021/08/06 07:59:21;;;;;;;2.22;1.60;;;640.00;1945.60;;;;;;5157415;27;20037;-78
2021/08/06 08:01:47;;;;;;;3.75;1.77;;;640.30;1971.20;;;;;;5157497;27;20026;-77
2021/08/06 08:04:12;;;;;;;2.17;0.90;;;640.30;1971.20;;;;;;5139109;27;20019;-77
2021/08/06 08:06:38;;;;;;;5.05;2.08;;;640.20;1945.60;;;;;;5156552;27;20034;-78
2021/08/06 08:09:04;;;;;;;1.13;0.80;;;640.30;1945.60;;;;;;5138471;27;20405;-78
2021/08/06 08:11:30;;;;;;;1.08;0.80;;;640.40;1920.00;;;;;;5138366;27;20023;-79
2021/08/06 08:13:56;;;;;;;2.53;0.98;;;640.40;1868.80;;;;;;5138151;27;20026;-78
2021/08/06 08:16:22;;;;;;;4.07;0.93;;;640.40;1868.80;;;;;;5138559;27;20046;-77
2021/08/06 08:18:48;;;;;;;1.00;0.90;;;640.50;1868.80;;;;;;5137878;27;20108;-78
2021/08/06 08:21:14;;;;;;;1.25;0.70;;;640.50;1868.80;;;;;;5151080;27;20018;-78
2021/08/06 08:23:40;;;;;;;1.15;0.80;;;640.60;1894.40;;;;;;5137846;27;20046;-78
2021/08/06 08:26:06;;;;;;;1.02;0.82;;;640.60;1894.40;;;;;;5138068;27;20094;-78
2021/08/06 08:28:32;;;;;;;0.85;0.80;;;640.80;1894.40;;;;;;5156364;27;20507;-78
2021/08/06 08:30:57;;;;;;;0.80;0.80;;;640.90;1868.80;;;;;;5137943;27;20027;-78
2021/08/06 08:33:25;;;;;;;1.52;0.98;;;640.90;1868.80;;;;;;5138460;27;20030;-77
2021/08/06 08:35:51;;;;;;;1.77;1.00;;;640.90;1868.80;;;;;;5138002;27;20031;-77
2021/08/06 08:38:17;;;;;;;2.78;1.80;;;640.90;1868.80;;;;;;5156244;27;20071;-78
2021/08/06 08:40:42;;;;;;;3.55;1.80;;;640.90;1817.60;;;;;;5156191;27;20018;-77
2021/08/06 08:43:09;;;;;;;1.83;1.30;;;640.90;1817.60;;;;;;5156020;27;20050;-76
2021/08/06 08:45:39;;;;;;;1.23;1.00;;;640.80;1817.60;;;;;;5156664;27;20023;-80
2021/08/06 08:48:07;;;;;;;2.75;0.88;;;640.90;1843.20;;;;;;5139075;27;20025;-82
2021/08/06 08:50:34;;;;;;;1.50;1.00;;;640.90;1817.60;;;;;;5157758;27;20057;-85
2021/08/06 08:53:00;;;;;;;1.02;0.75;;;640.80;1843.20;;;;;;5157144;27;20079;-85
2021/08/06 08:55:25;;;;;;;1.45;1.00;;;640.90;1894.40;;;;;;5137790;27;20035;-77
2021/08/06 08:57:51;;;;;;;0.80;0.80;;;640.90;1792.00;;;;;;5137788;27;20483;-76
2021/08/06 09:00:17;;;;;;;2.08;0.85;;;665.60;1843.20;;;;;;5155926;27;20552;-76
2021/08/06 09:02:43;;;;;;;2.38;0.90;;;665.60;1843.20;;;;;;5136854;27;20049;-76
2021/08/06 09:05:11;;;;;;;2.97;0.90;;;640.90;1766.40;;;;;;5156340;27;20042;-76
2021/08/06 09:07:37;;;;;;;2.00;1.00;;;640.90;1792.00;;;;;;5156162;27;20090;-78
2021/08/06 09:10:12;;;;;;;3.90;1.23;;;640.90;1792.00;;;;;;5137496;27;20110;-77
2021/08/06 09:13:00;;;;;;;2.60;1.25;;;640.90;1766.40;;;;;;5156054;27;20026;-76
2021/08/06 09:15:45;;;;;;;1.83;1.10;;;665.60;1792.00;;;;;;5155786;27;20045;-78
2021/08/06 09:18:23;;;;;;;2.08;1.13;;;665.80;1766.40;;;;;;5137296;27;20034;-78
2021/08/06 09:20:49;;;;;;;2.42;1.55;;;665.80;1792.00;;;;;;5155690;27;20027;-76
2021/08/06 09:23:40;;;;;;;1.95;1.30;;;665.80;1792.00;;;;;;5142571;27;20465;-74
2021/08/06 09:26:19;;;;;;;2.47;1.27;;;665.90;1817.60;;;;;;5134562;27;20011;-74
2021/08/06 09:29:27;;;;;;;2.45;1.50;;;666.00;1792.00;;;;;;5116230;27;20552;-76
2021/08/06 09:31:53;;;;;;;5.97;1.67;;;666.00;1817.60;;;;;;5129460;27;20156;-76
2021/08/06 09:34:23;;;;;;;4.45;1.95;;;666.10;1792.00;;;;;;5134637;27;20819;-73
2021/08/06 09:37:12;;;;;;;4.22;1.52;;;666.00;1868.80;;;;;;5134795;27;20110;-79
2021/08/06 09:39:48;;;;;;;2.65;1.50;;;666.10;1843.20;;;;;;5134716;27;20074;-77
2021/08/06 09:42:18;;;;;;;;;;;665.90;1843.20;;;;;;5112767;28;20019;-75
2021/08/06 09:44:54;;;;;;;6.72;2.45;;;666.00;1817.60;;;;;;5134387;27;19907;-75
2021/08/06 09:47:21;;;;;;;;;;;666.30;1817.60;;;;;;5116065;27;20035;-74
2021/08/06 09:49:50;;;;;;;2.47;1.70;;;666.50;1792.00;;;;;;5128714;27;20375;-74
2021/08/06 09:52:16;;;;;;;2.83;1.90;;;666.50;1792.00;;;;;;5130406;27;20019;-74
2021/08/06 09:54:49;;;;;;;4.70;1.85;;;691.30;1715.20;;;;;;5126466;27;20033;-75
2021/08/06 09:57:15;;;;;;;4.32;1.80;;;691.50;1766.40;;;;;;5112841;27;20026;-74
2021/08/06 09:59:40;;;;;;;4.72;1.92;;;691.70;1766.40;;;;;;5133777;27;20011;-74
2021/08/06 10:02:34;;;;;;;2.80;1.92;;;691.90;1664.00;;;;;;5133895;27;20384;-75
2021/08/06 10:05:08;;;;;;;5.15;2.17;;;692.10;1638.40;;;;;;5133638;27;20070;-73
2021/08/06 10:07:44;;;;;;;4.20;1.90;;;716.90;1689.60;;;;;;5134314;27;20019;-76
2021/08/06 10:10:13;;;;;;;3.35;2.20;;;;;;;;;;5134177;27;20019;-77
2021/08/06 10:12:38;;;;;;;3.72;1.80;;;717.20;1715.20;;;;;;5133363;27;20110;-77
2021/08/06 10:15:06;;;;;;;5.15;1.60;;;717.10;1664.00;;;;;;5133864;27;20110;-76
2021/08/06 10:17:31;;;;;;;3.20;2.03;;;717.10;1612.80;;;;;;5115604;27;20027;-77
2021/08/06 10:19:57;;;;;;;2.83;1.92;;;717.40;1612.80;;;;;;5134019;27;20027;-77
2021/08/06 10:22:23;;;;;;;2.95;1.75;;;717.60;1664.00;;;;;;5133630;27;20155;-75
2021/08/06 10:24:51;;;;;;;4.72;2.40;;;717.70;1638.40;;;;;;5134042;27;20093;-76
2021/08/06 10:27:27;;;;;;;3.63;2.17;;;742.40;1638.40;;;;;;5133684;27;20020;-78
2021/08/06 10:29:58;;;;;;;2.97;1.70;;;742.40;1638.40;;;;;;5115586;27;20023;-77
2021/08/06 10:32:25;;;;;;;3.70;2.00;;;742.50;1561.60;;;;;;5133537;27;20407;-77
2021/08/06 10:35:05;;;;;;;6.00;2.08;;;742.50;1612.80;;;;;;5133778;27;20031;-77
2021/08/06 10:38:00;;;;;;;3.55;2.10;;;742.50;1587.20;;;;;;5133845;27;20129;-76
2021/08/06 10:40:51;;;;;;;2.33;1.75;;;742.90;1561.60;;;;;;5133742;28;20020;-77
2021/08/06 10:43:17;;;;;;;4.20;1.73;;;742.90;1510.40;;;;;;5118255;28;20031;-76
2021/08/06 10:45:46;;;;;;;6.07;2.05;;;742.60;1561.60;;;;;;5126525;28;20027;-77
2021/08/06 10:48:30;;;;;;;3.03;1.95;;;742.50;1561.60;;;;;;5133685;28;20028;-76
2021/08/06 10:51:19;;;;;;;4.80;1.80;;;742.50;1536.00;;;;;;5133796;28;20054;-77
2021/08/06 10:54:08;;;;;;;3.17;1.95;;;742.80;1510.40;;;;;;5133683;28;20063;-77
2021/08/06 10:56:36;;;;;;;5.13;2.10;;;742.90;1510.40;;;;;;5115231;28;20062;-75
2021/08/06 10:59:11;;;;;;;3.88;1.90;;;742.80;1561.60;;;;;;5133475;28;20050;-75
2021/08/06 11:01:48;;;;;;;2.33;1.55;;;742.40;1536.00;;;;;;5133626;28;20019;-78
2021/08/06 11:04:14;;;;;;;2.75;1.88;;;742.70;1510.40;;;;;;5114937;28;20027;-74
2021/08/06 11:06:53;;;;;;;2.60;1.75;;;742.90;1459.20;;;;;;5133445;28;20023;-76
2021/08/06 11:09:28;;;;;;;7.50;2.03;;;742.90;1459.20;;;;;;5133286;28;20011;-75
2021/08/06 11:11:56;;;;;;;3.30;2.30;;;742.80;1510.40;;;;;;5129003;27;20032;-73
2021/08/06 11:14:40;;;;;;;3.30;2.38;;;742.70;1510.40;;;;;;5133219;28;20050;-74
2021/08/06 11:17:10;;;;;;;2.65;1.92;;;743.00;1484.80;;;;;;5133209;27;20035;-76
2021/08/06 11:19:40;;;;;;;4.25;2.47;;;742.70;1510.40;;;;;;5133233;28;20023;-74
2021/08/06 11:22:20;;;;;;;3.70;2.30;;;742.40;1484.80;;;;;;5114825;28;20046;-75
2021/08/06 11:24:53;;;;;;;3.25;2.45;;;742.80;1484.80;;;;;;5123288;27;20055;-76
2021/08/06 11:27:20;;;;;;;3.28;2.20;;;742.90;1459.20;;;;;;5134434;27;20046;-75
2021/08/06 11:30:00;;;;;;;3.33;2.13;;;743.00;1484.80;;;;;;5136712;27;20490;-75
2021/08/06 11:32:26;;;;;;;5.43;2.90;;;742.90;1433.60;;;;;;5121000;27;20102;-75
2021/08/06 11:34:57;;;;;;;4.13;2.67;;;742.90;1484.80;;;;;;5136452;27;20452;-75
2021/08/06 11:37:46;;;;;;;3.78;2.45;;;743.00;1484.80;;;;;;5123037;27;20039;-80
2021/08/06 11:40:13;;;;;;;4.32;2.75;;;743.30;1510.40;;;;;;5117792;27;20456;-76
2021/08/06 11:42:39;;;;;;;5.03;2.38;;;743.20;1484.80;;;;;;5133473;27;20026;-75
2021/08/06 11:45:11;;;;;;;3.08;1.90;;;743.30;1484.80;;;;;;5131253;27;20130;-74
2021/08/06 11:47:42;;;;;;;3.83;1.80;;;768.10;1459.20;;;;;;5136382;27;20066;-74
2021/08/06 11:50:12;;;;;;;5.10;1.80;;;768.20;1484.80;;;;;;5132255;27;20015;-79
2021/08/06 11:52:42;;;;;;;2.80;2.05;;;768.10;1459.20;;;;;;5136509;27;20015;-74
2021/08/06 11:55:09;;;;;;;3.05;1.90;;;768.20;1459.20;;;;;;5136925;27;20044;-74
2021/08/06 11:57:46;;;;;;;5.28;2.05;;;768.40;1433.60;;;;;;5119054;27;20058;-75
2021/08/06 12:00:23;;;;;;;1.98;1.40;;;768.50;1459.20;;;;;;5131897;27;20023;-77
2021/08/06 12:03:15;;;;;;;4.15;1.55;;;743.30;1459.20;;;;;;5117319;27;20008;-74
2021/08/06 12:05:49;;;;;;;2.60;2.03;;;768.00;1459.20;;;;;;5117522;27;20027;-76
2021/08/06 12:08:24;;;;;;;6.35;1.60;;;768.10;1484.80;;;;;;5098225;28;20098;-75
2021/08/06 12:10:54;;;;;;;3.63;1.70;;;768.20;1433.60;;;;;;5117463;27;20027;-76
2021/08/06 12:13:23;;;;;;;2.83;1.90;;;768.50;1382.40;;;;;;5110380;27;20020;-73
2021/08/06 12:16:22;;;;;;;2.72;1.92;;;768.60;1408.00;;;;;;5125781;27;20054;-76
2021/08/06 12:18:50;;;;;;;2.97;1.77;;;768.70;1408.00;;;;;;5066050;28;20028;-75
2021/08/06 12:21:21;;;;;;;2.60;2.00;;;768.90;1408.00;;;;;;5055723;28;20025;-75
2021/08/06 12:23:51;;;;;;;3.10;1.95;;;768.90;1382.40;;;;;;5070648;28;20052;-74
2021/08/06 12:26:22;;;;;;;3.08;1.77;;;768.60;1408.00;;;;;;5072789;28;20600;-74